CheckWX is a tool to help pilots better visualize weather data.  It is not intended as a substitute for an official pre-flight weather briefing.

09:27:15 UTC

KODO METAR
Odessa-Schlemeyer Field Airport
Odessa, Texas, USA
Current

34 mins ago

KODO 200853Z AUTO 22007KT 8SM CLR M03/M07 A2993 RMK AO2 SLP138 T10331067 55001
Observed
Feb-20 @ 08:53 UTC
Wind
  • 220° at 7 KTS
Visibility
12,875 meters
Flight Rules
VFR
Cloud Levels
  • Clear skies
Temperature
-3°C / 27°F
Dewpoint
-7°C / 19°F
Humidity
74%
Altimeter
29.93" Hg
Pressure
1013.8 hPa
Previous

2 hours ago

KODO 200753Z AUTO 27006KT 8SM CLR M02/M06 A2992 RMK AO2 SLP136 T10221056
Observed
Feb-20 @ 07:53 UTC
Wind
  • 270° at 6 KTS
Visibility
12,875 meters
Flight Rules
VFR
Cloud Levels
  • Clear skies
Temperature
-2°C / 28°F
Dewpoint
-6°C / 21°F
Humidity
74%
Altimeter
29.92" Hg
Pressure
1013.6 hPa
Previous

3 hours ago

KODO 200653Z AUTO 20007KT 8SM CLR M02/M06 A2993 RMK AO2 SLP137 T10221056
Observed
Feb-20 @ 06:53 UTC
Wind
  • 200° at 7 KTS
Visibility
12,875 meters
Flight Rules
VFR
Cloud Levels
  • Clear skies
Temperature
-2°C / 28°F
Dewpoint
-6°C / 21°F
Humidity
74%
Altimeter
29.93" Hg
Pressure
1013.7 hPa